KHPN/HPN METAR and TAF weather

Enter ICAO airport designator
Station Type Date Time Source
KHPN METAR 2022/05/25 00:56 UTC NOAA

KHPN 250056Z 00000KT 10SM SCT090 14/08 A3031 RMK AO2 SLP264 T01390078 $


Station Type Date Time Source
KHPN Decoded METAR 2022/05/25 00:56 UTC NOAA

WHITE PLAINS WESTCHESTER, NY, United States (KHPN) 41-04N 073-42W 121M
May 24, 2022 - 08:56 PM EDT / 2022.05.25 0056 UTC
Wind: Calm:0
Visibility: 10 mile(s):0
Sky conditions: partly cloudy
Temperature: 57.0 F (13.9 C)
Dew Point: 46.0 F (7.8 C)
Relative Humidity: 66%
Pressure (altimeter): 30.31 in. Hg (1026 hPa)
ob: KHPN 250056Z 00000KT 10SM SCT090 14/08 A3031 RMK AO2 SLP264 T01390078
cycle: 1

Station Type Date Time Source
KHPN TAF 2022/05/24 20:54 UTC NOAA

TAF
AMD KHPN 241953Z 2420/2518 12007KT P6SM SCT080
FM242300 14005KT P6SM SCT100
FM250500 07002KT P6SM SCT090
FM251400 11006KT P6SM BKN090
AMD NOT SKED

Example: see airport list